METAR Data
IDs: Format: Raw Decoded Include TAF

Data at: 0248 UTC 25 Feb 2021

EGAA 250220Z 21011KT CAVOK 05/03 Q1016